sensor_id;sensor_type;location;lat;lon;timestamp;P1;durP1;ratioP1;P2;durP2;ratioP2
13061;SDS011;6597;52.218;9.882;2022-08-21T00:00:09;2.27;;;1.50;;
13061;SDS011;6597;52.218;9.882;2022-08-21T00:02:44;2.40;;;1.67;;
13061;SDS011;6597;52.218;9.882;2022-08-21T00:05:11;3.07;;;1.60;;
13061;SDS011;6597;52.218;9.882;2022-08-21T00:07:38;2.37;;;1.60;;
13061;SDS011;6597;52.218;9.882;2022-08-21T00:10:07;2.77;;;1.40;;
13061;SDS011;6597;52.218;9.882;2022-08-21T00:12:34;4.03;;;1.40;;
13061;SDS011;6597;52.218;9.882;2022-08-21T00:15:00;2.80;;;1.47;;
13061;SDS011;6597;52.218;9.882;2022-08-21T00:17:27;3.33;;;1.60;;
13061;SDS011;6597;52.218;9.882;2022-08-21T00:19:54;1.63;;;1.47;;
13061;SDS011;6597;52.218;9.882;2022-08-21T00:22:20;6.30;;;1.60;;
13061;SDS011;6597;52.218;9.882;2022-08-21T00:24:47;5.77;;;1.47;;
13061;SDS011;6597;52.218;9.882;2022-08-21T00:27:16;4.60;;;1.73;;
13061;SDS011;6597;52.218;9.882;2022-08-21T00:29:42;1.70;;;1.30;;
13061;SDS011;6597;52.218;9.882;2022-08-21T00:32:09;3.33;;;1.60;;
13061;SDS011;6597;52.218;9.882;2022-08-21T00:34:35;3.73;;;1.47;;
13061;SDS011;6597;52.218;9.882;2022-08-21T00:37:02;2.50;;;1.37;;
13061;SDS011;6597;52.218;9.882;2022-08-21T00:39:29;2.80;;;1.57;;
13061;SDS011;6597;52.218;9.882;2022-08-21T00:41:55;1.73;;;1.30;;
13061;SDS011;6597;52.218;9.882;2022-08-21T00:44:23;4.57;;;1.63;;
13061;SDS011;6597;52.218;9.882;2022-08-21T00:46:50;1.30;;;1.20;;
13061;SDS011;6597;52.218;9.882;2022-08-21T00:49:17;3.90;;;1.53;;
13061;SDS011;6597;52.218;9.882;2022-08-21T00:51:45;2.27;;;1.40;;
13061;SDS011;6597;52.218;9.882;2022-08-21T00:54:15;1.73;;;1.33;;
13061;SDS011;6597;52.218;9.882;2022-08-21T00:56:44;4.13;;;1.67;;
13061;SDS011;6597;52.218;9.882;2022-08-21T00:59:13;1.93;;;1.57;;
13061;SDS011;6597;52.218;9.882;2022-08-21T01:01:44;2.03;;;1.30;;
13061;SDS011;6597;52.218;9.882;2022-08-21T01:04:11;4.60;;;1.70;;
13061;SDS011;6597;52.218;9.882;2022-08-21T01:06:38;4.67;;;1.83;;
13061;SDS011;6597;52.218;9.882;2022-08-21T01:09:05;4.33;;;1.70;;
13061;SDS011;6597;52.218;9.882;2022-08-21T01:11:31;2.57;;;1.70;;
13061;SDS011;6597;52.218;9.882;2022-08-21T01:13:58;3.10;;;1.50;;
13061;SDS011;6597;52.218;9.882;2022-08-21T01:16:25;3.90;;;1.53;;
13061;SDS011;6597;52.218;9.882;2022-08-21T01:18:53;2.63;;;1.63;;
13061;SDS011;6597;52.218;9.882;2022-08-21T01:21:21;3.63;;;1.70;;
13061;SDS011;6597;52.218;9.882;2022-08-21T01:23:50;3.67;;;2.10;;
13061;SDS011;6597;52.218;9.882;2022-08-21T01:26:21;5.90;;;1.87;;
13061;SDS011;6597;52.218;9.882;2022-08-21T01:28:50;7.37;;;2.00;;
13061;SDS011;6597;52.218;9.882;2022-08-21T01:31:22;4.83;;;1.90;;
13061;SDS011;6597;52.218;9.882;2022-08-21T01:33:51;5.30;;;1.93;;
13061;SDS011;6597;52.218;9.882;2022-08-21T01:36:18;4.53;;;2.00;;
13061;SDS011;6597;52.218;9.882;2022-08-21T01:38:46;2.50;;;1.70;;
13061;SDS011;6597;52.218;9.882;2022-08-21T01:41:13;3.90;;;1.60;;
13061;SDS011;6597;52.218;9.882;2022-08-21T01:43:40;3.77;;;1.70;;
13061;SDS011;6597;52.218;9.882;2022-08-21T01:46:07;2.10;;;1.73;;
13061;SDS011;6597;52.218;9.882;2022-08-21T01:48:34;3.00;;;1.70;;
13061;SDS011;6597;52.218;9.882;2022-08-21T01:51:01;4.77;;;1.80;;
13061;SDS011;6597;52.218;9.882;2022-08-21T01:53:29;7.37;;;2.20;;
13061;SDS011;6597;52.218;9.882;2022-08-21T01:55:57;4.43;;;2.33;;
13061;SDS011;6597;52.218;9.882;2022-08-21T01:58:23;3.40;;;2.00;;
13061;SDS011;6597;52.218;9.882;2022-08-21T02:00:50;6.53;;;2.20;;
13061;SDS011;6597;52.218;9.882;2022-08-21T02:03:18;4.10;;;2.60;;
13061;SDS011;6597;52.218;9.882;2022-08-21T02:05:45;2.77;;;1.93;;
13061;SDS011;6597;52.218;9.882;2022-08-21T02:08:12;5.97;;;2.17;;
13061;SDS011;6597;52.218;9.882;2022-08-21T02:10:39;5.03;;;2.10;;
13061;SDS011;6597;52.218;9.882;2022-08-21T02:13:07;5.07;;;2.20;;
13061;SDS011;6597;52.218;9.882;2022-08-21T02:15:34;4.57;;;2.10;;
13061;SDS011;6597;52.218;9.882;2022-08-21T02:18:01;4.37;;;2.17;;
13061;SDS011;6597;52.218;9.882;2022-08-21T02:20:29;4.90;;;2.70;;
13061;SDS011;6597;52.218;9.882;2022-08-21T02:22:57;4.83;;;2.20;;
13061;SDS011;6597;52.218;9.882;2022-08-21T02:25:25;3.73;;;2.40;;
13061;SDS011;6597;52.218;9.882;2022-08-21T02:27:52;3.43;;;2.53;;
13061;SDS011;6597;52.218;9.882;2022-08-21T02:30:23;2.87;;;2.27;;
13061;SDS011;6597;52.218;9.882;2022-08-21T02:32:53;5.73;;;2.40;;
13061;SDS011;6597;52.218;9.882;2022-08-21T02:35:20;3.57;;;2.80;;
13061;SDS011;6597;52.218;9.882;2022-08-21T02:37:49;4.27;;;2.70;;
13061;SDS011;6597;52.218;9.882;2022-08-21T02:40:18;3.93;;;2.50;;
13061;SDS011;6597;52.218;9.882;2022-08-21T02:42:47;5.00;;;2.70;;
13061;SDS011;6597;52.218;9.882;2022-08-21T02:45:14;4.10;;;2.37;;
13061;SDS011;6597;52.218;9.882;2022-08-21T02:47:47;3.40;;;2.30;;
13061;SDS011;6597;52.218;9.882;2022-08-21T02:50:16;5.40;;;2.47;;
13061;SDS011;6597;52.218;9.882;2022-08-21T02:52:45;7.60;;;2.33;;
13061;SDS011;6597;52.218;9.882;2022-08-21T02:55:11;4.83;;;2.57;;
13061;SDS011;6597;52.218;9.882;2022-08-21T02:57:38;3.87;;;2.80;;
13061;SDS011;6597;52.218;9.882;2022-08-21T03:00:05;4.63;;;2.50;;
13061;SDS011;6597;52.218;9.882;2022-08-21T03:02:33;4.77;;;2.43;;
13061;SDS011;6597;52.218;9.882;2022-08-21T03:05:01;8.80;;;3.13;;
13061;SDS011;6597;52.218;9.882;2022-08-21T03:07:31;3.90;;;2.63;;
13061;SDS011;6597;52.218;9.882;2022-08-21T03:09:57;5.23;;;2.30;;
13061;SDS011;6597;52.218;9.882;2022-08-21T03:12:24;3.47;;;2.30;;
13061;SDS011;6597;52.218;9.882;2022-08-21T03:14:51;6.20;;;2.17;;
13061;SDS011;6597;52.218;9.882;2022-08-21T03:17:17;3.50;;;2.50;;
13061;SDS011;6597;52.218;9.882;2022-08-21T03:19:44;5.40;;;3.30;;
13061;SDS011;6597;52.218;9.882;2022-08-21T03:22:12;3.03;;;2.57;;
13061;SDS011;6597;52.218;9.882;2022-08-21T03:24:39;7.27;;;2.90;;
13061;SDS011;6597;52.218;9.882;2022-08-21T03:27:05;4.63;;;2.30;;
13061;SDS011;6597;52.218;9.882;2022-08-21T03:29:32;4.87;;;2.90;;
13061;SDS011;6597;52.218;9.882;2022-08-21T03:31:59;7.10;;;2.47;;
13061;SDS011;6597;52.218;9.882;2022-08-21T03:34:25;7.17;;;2.17;;
13061;SDS011;6597;52.218;9.882;2022-08-21T03:36:52;3.73;;;2.40;;
13061;SDS011;6597;52.218;9.882;2022-08-21T03:39:20;5.73;;;2.90;;
13061;SDS011;6597;52.218;9.882;2022-08-21T03:41:47;3.77;;;2.50;;
13061;SDS011;6597;52.218;9.882;2022-08-21T03:44:13;3.87;;;2.63;;
13061;SDS011;6597;52.218;9.882;2022-08-21T03:46:40;6.43;;;2.27;;
13061;SDS011;6597;52.218;9.882;2022-08-21T03:49:07;3.63;;;2.37;;
13061;SDS011;6597;52.218;9.882;2022-08-21T03:51:33;5.53;;;2.30;;
13061;SDS011;6597;52.218;9.882;2022-08-21T03:54:00;3.50;;;2.20;;
13061;SDS011;6597;52.218;9.882;2022-08-21T03:56:28;6.57;;;2.60;;
13061;SDS011;6597;52.218;9.882;2022-08-21T03:58:55;3.50;;;2.50;;
13061;SDS011;6597;52.218;9.882;2022-08-21T04:01:22;6.17;;;2.83;;
13061;SDS011;6597;52.218;9.882;2022-08-21T04:03:48;5.60;;;2.83;;
13061;SDS011;6597;52.218;9.882;2022-08-21T04:06:15;4.20;;;2.37;;
13061;SDS011;6597;52.218;9.882;2022-08-21T04:08:41;3.27;;;2.50;;
13061;SDS011;6597;52.218;9.882;2022-08-21T04:11:08;2.67;;;2.20;;
13061;SDS011;6597;52.218;9.882;2022-08-21T04:13:37;3.43;;;2.60;;
13061;SDS011;6597;52.218;9.882;2022-08-21T04:16:05;6.77;;;2.60;;
13061;SDS011;6597;52.218;9.882;2022-08-21T04:18:33;4.30;;;2.70;;
13061;SDS011;6597;52.218;9.882;2022-08-21T04:20:59;3.20;;;2.50;;
13061;SDS011;6597;52.218;9.882;2022-08-21T04:23:28;7.50;;;2.63;;
13061;SDS011;6597;52.218;9.882;2022-08-21T04:25:55;8.30;;;2.43;;
13061;SDS011;6597;52.218;9.882;2022-08-21T04:28:23;6.47;;;2.33;;
13061;SDS011;6597;52.218;9.882;2022-08-21T04:30:53;5.77;;;2.27;;
13061;SDS011;6597;52.218;9.882;2022-08-21T04:33:20;6.47;;;2.43;;
13061;SDS011;6597;52.218;9.882;2022-08-21T04:35:47;4.63;;;2.50;;
13061;SDS011;6597;52.218;9.882;2022-08-21T04:38:14;6.43;;;2.53;;
13061;SDS011;6597;52.218;9.882;2022-08-21T04:40:41;5.30;;;2.70;;
13061;SDS011;6597;52.218;9.882;2022-08-21T04:43:08;8.70;;;2.50;;
13061;SDS011;6597;52.218;9.882;2022-08-21T04:45:36;2.50;;;2.20;;
13061;SDS011;6597;52.218;9.882;2022-08-21T04:48:07;6.27;;;2.23;;
13061;SDS011;6597;52.218;9.882;2022-08-21T04:50:36;3.67;;;2.03;;
13061;SDS011;6597;52.218;9.882;2022-08-21T04:53:06;4.67;;;2.37;;
13061;SDS011;6597;52.218;9.882;2022-08-21T04:55:36;6.57;;;2.40;;
13061;SDS011;6597;52.218;9.882;2022-08-21T04:58:04;5.53;;;2.27;;
13061;SDS011;6597;52.218;9.882;2022-08-21T05:00:31;5.10;;;2.43;;
13061;SDS011;6597;52.218;9.882;2022-08-21T05:02:58;5.27;;;2.10;;
13061;SDS011;6597;52.218;9.882;2022-08-21T05:05:28;3.07;;;2.10;;
13061;SDS011;6597;52.218;9.882;2022-08-21T05:07:55;2.63;;;2.07;;
13061;SDS011;6597;52.218;9.882;2022-08-21T05:10:25;5.03;;;2.37;;
13061;SDS011;6597;52.218;9.882;2022-08-21T05:12:52;4.17;;;1.90;;
13061;SDS011;6597;52.218;9.882;2022-08-21T05:15:19;5.37;;;2.07;;
13061;SDS011;6597;52.218;9.882;2022-08-21T05:17:46;5.67;;;2.13;;
13061;SDS011;6597;52.218;9.882;2022-08-21T05:20:13;4.67;;;2.10;;
13061;SDS011;6597;52.218;9.882;2022-08-21T05:22:41;7.13;;;2.67;;
13061;SDS011;6597;52.218;9.882;2022-08-21T05:25:08;4.73;;;2.50;;
13061;SDS011;6597;52.218;9.882;2022-08-21T05:27:35;4.60;;;2.70;;
13061;SDS011;6597;52.218;9.882;2022-08-21T05:30:02;4.50;;;2.23;;
13061;SDS011;6597;52.218;9.882;2022-08-21T05:32:30;6.70;;;2.30;;
13061;SDS011;6597;52.218;9.882;2022-08-21T05:34:56;2.97;;;2.10;;
13061;SDS011;6597;52.218;9.882;2022-08-21T05:37:23;3.27;;;2.23;;
13061;SDS011;6597;52.218;9.882;2022-08-21T05:39:51;5.17;;;1.87;;
13061;SDS011;6597;52.218;9.882;2022-08-21T05:42:17;4.33;;;2.10;;
13061;SDS011;6597;52.218;9.882;2022-08-21T05:44:44;3.63;;;2.20;;
13061;SDS011;6597;52.218;9.882;2022-08-21T05:47:10;2.37;;;1.80;;
13061;SDS011;6597;52.218;9.882;2022-08-21T05:49:37;4.13;;;2.40;;
13061;SDS011;6597;52.218;9.882;2022-08-21T05:52:04;3.67;;;2.10;;
13061;SDS011;6597;52.218;9.882;2022-08-21T05:54:31;3.93;;;2.20;;
13061;SDS011;6597;52.218;9.882;2022-08-21T05:56:59;5.07;;;2.30;;
13061;SDS011;6597;52.218;9.882;2022-08-21T05:59:25;4.87;;;1.90;;
13061;SDS011;6597;52.218;9.882;2022-08-21T06:01:52;4.40;;;2.00;;
13061;SDS011;6597;52.218;9.882;2022-08-21T06:04:19;4.33;;;2.00;;
13061;SDS011;6597;52.218;9.882;2022-08-21T06:06:46;4.57;;;2.20;;
13061;SDS011;6597;52.218;9.882;2022-08-21T06:09:13;2.10;;;1.80;;
13061;SDS011;6597;52.218;9.882;2022-08-21T06:11:40;6.53;;;1.83;;
13061;SDS011;6597;52.218;9.882;2022-08-21T06:14:08;1.93;;;1.50;;
13061;SDS011;6597;52.218;9.882;2022-08-21T06:16:34;5.00;;;1.87;;
13061;SDS011;6597;52.218;9.882;2022-08-21T06:19:01;5.60;;;1.93;;
13061;SDS011;6597;52.218;9.882;2022-08-21T06:21:28;3.07;;;1.60;;
13061;SDS011;6597;52.218;9.882;2022-08-21T06:23:54;3.30;;;1.57;;
13061;SDS011;6597;52.218;9.882;2022-08-21T06:26:21;2.23;;;1.80;;
13061;SDS011;6597;52.218;9.882;2022-08-21T06:28:48;3.53;;;1.77;;
13061;SDS011;6597;52.218;9.882;2022-08-21T06:31:20;1.70;;;1.43;;
13061;SDS011;6597;52.218;9.882;2022-08-21T06:33:48;4.05;;;1.88;;
13061;SDS011;6597;52.218;9.882;2022-08-21T06:36:16;5.78;;;2.00;;
13061;SDS011;6597;52.218;9.882;2022-08-21T06:38:43;3.30;;;1.90;;
13061;SDS011;6597;52.218;9.882;2022-08-21T06:41:10;7.75;;;2.13;;
13061;SDS011;6597;52.218;9.882;2022-08-21T06:43:37;3.60;;;2.10;;
13061;SDS011;6597;52.218;9.882;2022-08-21T06:46:04;5.90;;;1.98;;
13061;SDS011;6597;52.218;9.882;2022-08-21T06:48:31;4.13;;;1.92;;
13061;SDS011;6597;52.218;9.882;2022-08-21T06:50:59;6.90;;;2.38;;
13061;SDS011;6597;52.218;9.882;2022-08-21T06:53:26;4.75;;;2.10;;
13061;SDS011;6597;52.218;9.882;2022-08-21T06:55:53;6.22;;;2.72;;
13061;SDS011;6597;52.218;9.882;2022-08-21T06:58:20;9.32;;;2.22;;
13061;SDS011;6597;52.218;9.882;2022-08-21T07:00:48;5.13;;;2.20;;
13061;SDS011;6597;52.218;9.882;2022-08-21T07:03:19;7.32;;;2.63;;
13061;SDS011;6597;52.218;9.882;2022-08-21T07:05:49;5.43;;;2.60;;
13061;SDS011;6597;52.218;9.882;2022-08-21T07:08:16;3.05;;;2.45;;
13061;SDS011;6597;52.218;9.882;2022-08-21T07:10:43;5.90;;;2.65;;
13061;SDS011;6597;52.218;9.882;2022-08-21T07:13:10;3.88;;;2.40;;
13061;SDS011;6597;52.218;9.882;2022-08-21T07:15:37;6.18;;;2.42;;
13061;SDS011;6597;52.218;9.882;2022-08-21T07:18:04;4.03;;;2.47;;
13061;SDS011;6597;52.218;9.882;2022-08-21T07:20:31;5.32;;;2.35;;
13061;SDS011;6597;52.218;9.882;2022-08-21T07:23:02;5.20;;;2.53;;
13061;SDS011;6597;52.218;9.882;2022-08-21T07:25:31;2.72;;;2.13;;
13061;SDS011;6597;52.218;9.882;2022-08-21T07:27:57;4.25;;;2.13;;
13061;SDS011;6597;52.218;9.882;2022-08-21T07:30:24;4.60;;;2.55;;
13061;SDS011;6597;52.218;9.882;2022-08-21T07:32:51;8.02;;;2.90;;
13061;SDS011;6597;52.218;9.882;2022-08-21T07:35:18;3.15;;;2.40;;
13061;SDS011;6597;52.218;9.882;2022-08-21T07:37:45;5.68;;;2.65;;
13061;SDS011;6597;52.218;9.882;2022-08-21T07:40:14;3.45;;;2.22;;
13061;SDS011;6597;52.218;9.882;2022-08-21T07:42:42;4.57;;;2.50;;
13061;SDS011;6597;52.218;9.882;2022-08-21T07:45:10;3.13;;;2.25;;
13061;SDS011;6597;52.218;9.882;2022-08-21T07:47:38;6.40;;;2.60;;
13061;SDS011;6597;52.218;9.882;2022-08-21T07:50:05;3.92;;;2.30;;
13061;SDS011;6597;52.218;9.882;2022-08-21T07:52:33;8.55;;;2.40;;
13061;SDS011;6597;52.218;9.882;2022-08-21T07:55:00;8.38;;;2.22;;
13061;SDS011;6597;52.218;9.882;2022-08-21T07:57:28;4.03;;;2.00;;
13061;SDS011;6597;52.218;9.882;2022-08-21T07:59:54;8.00;;;2.35;;
13061;SDS011;6597;52.218;9.882;2022-08-21T08:02:22;10.38;;;2.58;;
13061;SDS011;6597;52.218;9.882;2022-08-21T08:04:49;4.70;;;2.65;;
13061;SDS011;6597;52.218;9.882;2022-08-21T08:07:16;6.60;;;2.53;;
13061;SDS011;6597;52.218;9.882;2022-08-21T08:09:43;4.88;;;2.53;;
13061;SDS011;6597;52.218;9.882;2022-08-21T08:12:09;3.40;;;2.53;;
13061;SDS011;6597;52.218;9.882;2022-08-21T08:14:37;4.50;;;2.55;;
13061;SDS011;6597;52.218;9.882;2022-08-21T08:17:04;5.15;;;2.58;;
13061;SDS011;6597;52.218;9.882;2022-08-21T08:19:31;5.40;;;3.20;;
13061;SDS011;6597;52.218;9.882;2022-08-21T08:21:57;3.83;;;2.53;;
13061;SDS011;6597;52.218;9.882;2022-08-21T08:24:24;4.47;;;2.00;;
13061;SDS011;6597;52.218;9.882;2022-08-21T08:26:50;5.53;;;2.55;;
13061;SDS011;6597;52.218;9.882;2022-08-21T08:29:19;6.85;;;2.42;;
13061;SDS011;6597;52.218;9.882;2022-08-21T08:31:47;4.13;;;2.35;;
13061;SDS011;6597;52.218;9.882;2022-08-21T08:34:13;4.85;;;2.40;;
13061;SDS011;6597;52.218;9.882;2022-08-21T08:36:40;7.10;;;2.38;;
13061;SDS011;6597;52.218;9.882;2022-08-21T08:39:07;5.30;;;1.90;;
13061;SDS011;6597;52.218;9.882;2022-08-21T08:41:33;4.35;;;2.38;;
13061;SDS011;6597;52.218;9.882;2022-08-21T08:44:03;6.13;;;2.30;;
13061;SDS011;6597;52.218;9.882;2022-08-21T08:46:34;5.15;;;2.47;;
13061;SDS011;6597;52.218;9.882;2022-08-21T08:49:08;4.10;;;2.28;;
13061;SDS011;6597;52.218;9.882;2022-08-21T08:51:40;3.67;;;2.40;;
13061;SDS011;6597;52.218;9.882;2022-08-21T08:54:11;6.47;;;2.45;;
13061;SDS011;6597;52.218;9.882;2022-08-21T08:56:41;4.35;;;2.35;;
13061;SDS011;6597;52.218;9.882;2022-08-21T08:59:11;5.53;;;2.25;;
13061;SDS011;6597;52.218;9.882;2022-08-21T09:01:41;5.35;;;2.08;;
13061;SDS011;6597;52.218;9.882;2022-08-21T09:04:10;3.58;;;1.90;;
13061;SDS011;6597;52.218;9.882;2022-08-21T09:06:44;2.70;;;1.75;;
13061;SDS011;6597;52.218;9.882;2022-08-21T09:09:22;5.68;;;2.10;;
13061;SDS011;6597;52.218;9.882;2022-08-21T09:11:57;5.18;;;2.45;;
13061;SDS011;6597;52.218;9.882;2022-08-21T09:14:32;4.70;;;1.95;;
13061;SDS011;6597;52.218;9.882;2022-08-21T09:17:18;2.92;;;1.80;;
13061;SDS011;6597;52.218;9.882;2022-08-21T09:19:57;4.45;;;2.13;;
13061;SDS011;6597;52.218;9.882;2022-08-21T09:22:37;3.13;;;1.90;;
13061;SDS011;6597;52.218;9.882;2022-08-21T09:25:11;5.50;;;2.03;;
13061;SDS011;6597;52.218;9.882;2022-08-21T09:27:43;4.32;;;1.88;;
13061;SDS011;6597;52.218;9.882;2022-08-21T09:30:10;4.57;;;1.95;;
13061;SDS011;6597;52.218;9.882;2022-08-21T09:32:38;4.75;;;2.03;;
13061;SDS011;6597;52.218;9.882;2022-08-21T09:35:09;4.93;;;1.85;;
13061;SDS011;6597;52.218;9.882;2022-08-21T09:37:45;3.67;;;1.80;;
13061;SDS011;6597;52.218;9.882;2022-08-21T09:40:15;4.93;;;1.60;;
13061;SDS011;6597;52.218;9.882;2022-08-21T09:42:54;3.95;;;1.55;;
13061;SDS011;6597;52.218;9.882;2022-08-21T09:45:22;3.85;;;1.70;;
13061;SDS011;6597;52.218;9.882;2022-08-21T09:47:49;2.53;;;1.70;;
13061;SDS011;6597;52.218;9.882;2022-08-21T09:50:18;5.05;;;2.22;;
13061;SDS011;6597;52.218;9.882;2022-08-21T09:52:48;8.55;;;1.90;;
13061;SDS011;6597;52.218;9.882;2022-08-21T09:55:18;2.80;;;1.90;;
13061;SDS011;6597;52.218;9.882;2022-08-21T09:58:06;3.05;;;2.22;;
13061;SDS011;6597;52.218;9.882;2022-08-21T10:00:34;5.25;;;1.83;;
13061;SDS011;6597;52.218;9.882;2022-08-21T10:03:09;2.13;;;1.92;;
13061;SDS011;6597;52.218;9.882;2022-08-21T10:05:51;3.97;;;1.80;;
13061;SDS011;6597;52.218;9.882;2022-08-21T10:08:21;2.50;;;1.77;;
13061;SDS011;6597;52.218;9.882;2022-08-21T10:10:50;2.08;;;1.55;;
13061;SDS011;6597;52.218;9.882;2022-08-21T10:13:21;5.18;;;1.70;;
13061;SDS011;6597;52.218;9.882;2022-08-21T10:15:57;3.35;;;1.48;;
13061;SDS011;6597;52.218;9.882;2022-08-21T10:18:34;3.00;;;1.70;;
13061;SDS011;6597;52.218;9.882;2022-08-21T10:21:07;4.63;;;1.67;;
13061;SDS011;6597;52.218;9.882;2022-08-21T10:23:43;2.63;;;1.60;;
13061;SDS011;6597;52.218;9.882;2022-08-21T10:26:20;2.35;;;1.70;;
13061;SDS011;6597;52.218;9.882;2022-08-21T10:29:02;3.67;;;1.77;;
13061;SDS011;6597;52.218;9.882;2022-08-21T10:31:39;3.60;;;1.65;;
13061;SDS011;6597;52.218;9.882;2022-08-21T10:34:21;5.28;;;1.65;;
13061;SDS011;6597;52.218;9.882;2022-08-21T10:37:01;2.78;;;1.75;;
13061;SDS011;6597;52.218;9.882;2022-08-21T10:39:42;5.22;;;1.70;;
13061;SDS011;6597;52.218;9.882;2022-08-21T10:42:22;8.00;;;1.73;;
13061;SDS011;6597;52.218;9.882;2022-08-21T10:45:06;2.67;;;1.92;;
13061;SDS011;6597;52.218;9.882;2022-08-21T10:47:39;3.30;;;1.50;;
13061;SDS011;6597;52.218;9.882;2022-08-21T10:50:14;4.32;;;2.10;;
13061;SDS011;6597;52.218;9.882;2022-08-21T10:52:56;2.95;;;1.40;;
13061;SDS011;6597;52.218;9.882;2022-08-21T10:55:41;2.42;;;1.38;;
13061;SDS011;6597;52.218;9.882;2022-08-21T10:58:14;4.45;;;1.45;;
13061;SDS011;6597;52.218;9.882;2022-08-21T11:00:47;3.30;;;1.40;;
13061;SDS011;6597;52.218;9.882;2022-08-21T11:03:20;2.20;;;1.67;;
13061;SDS011;6597;52.218;9.882;2022-08-21T11:05:51;3.08;;;1.75;;
13061;SDS011;6597;52.218;9.882;2022-08-21T11:08:22;4.15;;;1.52;;
13061;SDS011;6597;52.218;9.882;2022-08-21T11:10:53;3.38;;;1.88;;
13061;SDS011;6597;52.218;9.882;2022-08-21T11:13:27;2.40;;;1.42;;
13061;SDS011;6597;52.218;9.882;2022-08-21T11:16:00;3.60;;;1.50;;
13061;SDS011;6597;52.218;9.882;2022-08-21T11:18:32;2.80;;;1.48;;
13061;SDS011;6597;52.218;9.882;2022-08-21T11:21:04;2.25;;;1.42;;
13061;SDS011;6597;52.218;9.882;2022-08-21T11:23:49;2.30;;;1.73;;
13061;SDS011;6597;52.218;9.882;2022-08-21T11:29:08;2.97;;;1.73;;
13061;SDS011;6597;52.218;9.882;2022-08-21T11:31:44;3.78;;;1.17;;
13061;SDS011;6597;52.218;9.882;2022-08-21T11:34:25;5.05;;;2.05;;
13061;SDS011;6597;52.218;9.882;2022-08-21T11:37:03;6.00;;;1.30;;
13061;SDS011;6597;52.218;9.882;2022-08-21T11:39:43;1.33;;;1.23;;
13061;SDS011;6597;52.218;9.882;2022-08-21T11:42:20;4.95;;;1.70;;
13061;SDS011;6597;52.218;9.882;2022-08-21T11:44:56;3.47;;;1.55;;
13061;SDS011;6597;52.218;9.882;2022-08-21T11:47:40;6.18;;;1.60;;
13061;SDS011;6597;52.218;9.882;2022-08-21T11:50:17;3.50;;;1.85;;
13061;SDS011;6597;52.218;9.882;2022-08-21T11:52:47;5.20;;;2.08;;
13061;SDS011;6597;52.218;9.882;2022-08-21T11:55:19;2.38;;;1.63;;
13061;SDS011;6597;52.218;9.882;2022-08-21T11:57:54;2.25;;;1.40;;
13061;SDS011;6597;52.218;9.882;2022-08-21T12:00:25;2.67;;;1.50;;
13061;SDS011;6597;52.218;9.882;2022-08-21T12:02:56;1.23;;;1.13;;
13061;SDS011;6597;52.218;9.882;2022-08-21T12:05:35;2.45;;;1.38;;
13061;SDS011;6597;52.218;9.882;2022-08-21T12:08:06;5.32;;;2.30;;
13061;SDS011;6597;52.218;9.882;2022-08-21T12:10:42;3.95;;;1.25;;
13061;SDS011;6597;52.218;9.882;2022-08-21T12:13:21;3.60;;;1.50;;
13061;SDS011;6597;52.218;9.882;2022-08-21T12:15:51;1.40;;;1.30;;
13061;SDS011;6597;52.218;9.882;2022-08-21T12:18:22;6.47;;;1.63;;
13061;SDS011;6597;52.218;9.882;2022-08-21T12:21:01;2.80;;;1.33;;
13061;SDS011;6597;52.218;9.882;2022-08-21T12:23:31;2.45;;;1.27;;
13061;SDS011;6597;52.218;9.882;2022-08-21T12:29:11;2.75;;;1.23;;
13061;SDS011;6597;52.218;9.882;2022-08-21T12:31:56;1.73;;;1.48;;
13061;SDS011;6597;52.218;9.882;2022-08-21T12:34:29;4.55;;;1.48;;
13061;SDS011;6597;52.218;9.882;2022-08-21T12:37:01;2.15;;;1.50;;
13061;SDS011;6597;52.218;9.882;2022-08-21T12:39:31;3.28;;;1.65;;
13061;SDS011;6597;52.218;9.882;2022-08-21T12:42:04;3.38;;;1.85;;
13061;SDS011;6597;52.218;9.882;2022-08-21T12:44:39;4.85;;;1.65;;
13061;SDS011;6597;52.218;9.882;2022-08-21T12:47:16;2.70;;;1.50;;
13061;SDS011;6597;52.218;9.882;2022-08-21T12:49:53;7.70;;;1.70;;
13061;SDS011;6597;52.218;9.882;2022-08-21T12:52:25;4.55;;;1.35;;
13061;SDS011;6597;52.218;9.882;2022-08-21T12:54:55;2.70;;;1.50;;
13061;SDS011;6597;52.218;9.882;2022-08-21T12:57:24;3.95;;;1.48;;
13061;SDS011;6597;52.218;9.882;2022-08-21T12:59:54;2.33;;;1.50;;
13061;SDS011;6597;52.218;9.882;2022-08-21T13:02:22;3.20;;;1.50;;
13061;SDS011;6597;52.218;9.882;2022-08-21T13:04:51;5.80;;;1.27;;
13061;SDS011;6597;52.218;9.882;2022-08-21T13:07:22;4.15;;;1.48;;
13061;SDS011;6597;52.218;9.882;2022-08-21T13:09:53;3.40;;;1.23;;
13061;SDS011;6597;52.218;9.882;2022-08-21T13:12:26;4.13;;;1.55;;
13061;SDS011;6597;52.218;9.882;2022-08-21T13:14:55;3.15;;;1.45;;
13061;SDS011;6597;52.218;9.882;2022-08-21T13:17:25;6.53;;;1.85;;
13061;SDS011;6597;52.218;9.882;2022-08-21T13:19:56;3.75;;;1.48;;
13061;SDS011;6597;52.218;9.882;2022-08-21T13:22:25;4.38;;;1.50;;
13061;SDS011;6597;52.218;9.882;2022-08-21T13:24:52;2.47;;;1.50;;
13061;SDS011;6597;52.218;9.882;2022-08-21T13:27:21;2.20;;;1.10;;
13061;SDS011;6597;52.218;9.882;2022-08-21T13:30:03;3.03;;;1.60;;
13061;SDS011;6597;52.218;9.882;2022-08-21T13:32:37;1.55;;;1.30;;
13061;SDS011;6597;52.218;9.882;2022-08-21T13:35:08;3.80;;;1.77;;
13061;SDS011;6597;52.218;9.882;2022-08-21T13:37:38;2.45;;;1.50;;
13061;SDS011;6597;52.218;9.882;2022-08-21T13:40:06;1.85;;;1.25;;
13061;SDS011;6597;52.218;9.882;2022-08-21T13:42:37;2.90;;;1.75;;
13061;SDS011;6597;52.218;9.882;2022-08-21T13:45:11;3.90;;;1.90;;
13061;SDS011;6597;52.218;9.882;2022-08-21T13:47:40;1.40;;;1.30;;
13061;SDS011;6597;52.218;9.882;2022-08-21T13:50:08;3.47;;;1.73;;
13061;SDS011;6597;52.218;9.882;2022-08-21T13:52:44;2.13;;;1.42;;
13061;SDS011;6597;52.218;9.882;2022-08-21T13:55:15;3.13;;;1.45;;
13061;SDS011;6597;52.218;9.882;2022-08-21T13:57:42;2.50;;;1.88;;
13061;SDS011;6597;52.218;9.882;2022-08-21T14:00:12;3.42;;;1.50;;
13061;SDS011;6597;52.218;9.882;2022-08-21T14:02:42;2.55;;;2.20;;
13061;SDS011;6597;52.218;9.882;2022-08-21T14:05:14;2.38;;;2.08;;
13061;SDS011;6597;52.218;9.882;2022-08-21T14:07:42;2.15;;;1.40;;
13061;SDS011;6597;52.218;9.882;2022-08-21T14:10:12;1.70;;;1.20;;
13061;SDS011;6597;52.218;9.882;2022-08-21T14:12:42;3.28;;;1.40;;
13061;SDS011;6597;52.218;9.882;2022-08-21T14:15:14;1.88;;;1.73;;
13061;SDS011;6597;52.218;9.882;2022-08-21T14:17:42;1.42;;;1.08;;
13061;SDS011;6597;52.218;9.882;2022-08-21T14:22:37;3.03;;;1.80;;
13061;SDS011;6597;52.218;9.882;2022-08-21T14:25:07;2.78;;;1.27;;
13061;SDS011;6597;52.218;9.882;2022-08-21T14:27:39;3.78;;;1.27;;
13061;SDS011;6597;52.218;9.882;2022-08-21T14:30:11;2.55;;;1.80;;
13061;SDS011;6597;52.218;9.882;2022-08-21T14:32:40;3.00;;;1.48;;
13061;SDS011;6597;52.218;9.882;2022-08-21T14:35:07;4.70;;;1.70;;
13061;SDS011;6597;52.218;9.882;2022-08-21T14:37:35;3.03;;;1.35;;
13061;SDS011;6597;52.218;9.882;2022-08-21T14:40:03;1.90;;;1.50;;
13061;SDS011;6597;52.218;9.882;2022-08-21T14:42:30;2.95;;;1.38;;
13061;SDS011;6597;52.218;9.882;2022-08-21T14:44:59;5.60;;;2.10;;
13061;SDS011;6597;52.218;9.882;2022-08-21T14:47:31;3.47;;;1.73;;
13061;SDS011;6597;52.218;9.882;2022-08-21T14:49:59;2.13;;;1.50;;
13061;SDS011;6597;52.218;9.882;2022-08-21T14:52:25;4.07;;;1.40;;
13061;SDS011;6597;52.218;9.882;2022-08-21T14:54:52;3.35;;;1.67;;
13061;SDS011;6597;52.218;9.882;2022-08-21T14:57:19;3.53;;;1.65;;
13061;SDS011;6597;52.218;9.882;2022-08-21T14:59:45;2.90;;;1.65;;
13061;SDS011;6597;52.218;9.882;2022-08-21T15:02:12;2.33;;;1.60;;
13061;SDS011;6597;52.218;9.882;2022-08-21T15:04:39;1.67;;;1.35;;
13061;SDS011;6597;52.218;9.882;2022-08-21T15:07:08;2.45;;;1.80;;
13061;SDS011;6597;52.218;9.882;2022-08-21T15:09:34;3.72;;;1.90;;
13061;SDS011;6597;52.218;9.882;2022-08-21T15:12:01;2.80;;;1.73;;
13061;SDS011;6597;52.218;9.882;2022-08-21T15:14:30;2.08;;;1.77;;
13061;SDS011;6597;52.218;9.882;2022-08-21T15:17:00;2.85;;;1.92;;
13061;SDS011;6597;52.218;9.882;2022-08-21T15:19:28;3.47;;;1.83;;
13061;SDS011;6597;52.218;9.882;2022-08-21T15:21:55;2.10;;;1.90;;